Flight Track Log - Related Links

Times and Time Zones

All times are in EDT time to prevent confusion due to time zone crossing. See the AWE801 flight status page for this flight to view local times or setup timezone preferences in your user account.

Time Position Orientation Groundspeed Altitude Reporting Facility
EDT Latitude Longitude Course Direction KTS MPH feet Rate Location/Type
Tue 09:43:57 AM 35.2870 -80.9200 23° Northeast 220 253 4,000  Level FlightAware ADS-B
Tue 09:44:12 AM 35.2990 -80.9100 34° Northeast 242 278 4,300 1,600 Climbing FlightAware ADS-B
Tue 09:44:27 AM 35.3050 -80.8930 67° East 258 297 4,800 2,400 Climbing FlightAware ADS-B
Tue 09:44:32 AM 35.3050 -80.8820 90° East 263 303 5,100 3,600 Climbing FlightAware ADS-B
Tue 09:45:07 AM 35.3000 -80.8290 97° East 271 312 7,200 3,231 Climbing FlightAware ADS-B
Tue 09:45:37 AM 35.2860 -80.7860 112° Southeast 292 336 8,600 2,836 Climbing FlightAware ADS-B
Tue 09:46:02 AM 35.2560 -80.7700 156° South 298 343 9,800 2,314 Climbing FlightAware ADS-B
Tue 09:46:47 AM 35.1880 -80.7840 190° South 351 404 11,300 2,541 Climbing FlightAware ADS-B
Tue 09:47:27 AM 35.1220 -80.8000 191° South 383 441 13,400 3,663 Climbing FlightAware ADS-B
Tue 09:48:22 AM 35.0240 -80.8230 191° South 398 458 17,100 3,789 Climbing FlightAware ADS-B
Tue 09:49:02 AM 34.9520 -80.8390 190° South 412 474 19,400 3,247 Climbing FlightAware ADS-B
Tue 09:49:47 AM 34.8670 -80.8590 191° South 431 496 21,700 2,021 Climbing FlightAware ADS-B
Tue 09:50:37 AM 34.7770 -80.8790 190° South 441 507 22,600 540 Climbing FlightAware ADS-B
Tue 09:51:27 AM 34.6920 -80.8990 191° South 441 507 22,600  Level FlightAware ADS-B
Tue 09:52:07 AM 34.6240 -80.9160 192° South 441 507 22,600  Level FlightAware ADS-B
Tue 09:52:47 AM 34.5560 -80.9320 191° South 441 507 22,600  Level FlightAware ADS-B
Tue 09:53:27 AM 34.4880 -80.9480 191° South 441 507 22,600  Level FlightAware ADS-B
Tue 09:54:07 AM 34.4200 -80.9640 191° South 441 507 22,600 4,733 Level FlightAware ADS-B
Tue 09:54:57 AM 34.2060 -80.9660 180° South 511 588 29,700 4,229 Climbing FlightAware ADS-B
Tue 09:55:52 AM 34.0790 -81.0000 193° South 513 590 30,000 927 Climbing FlightAware ADS-B
Tue 09:56:47 AM 33.9550 -81.0310 192° South 504 580 31,400 1,516 Climbing FlightAware ADS-B
Tue 09:57:27 AM 33.8640 -81.0520 191° South 523 602 32,400 1,835 Climbing FlightAware ADS-B
Tue 09:58:12 AM 33.7490 -81.0600 183° South 520 598 34,000 1,129 Climbing FlightAware ADS-B
Tue 09:58:52 AM 33.6510 -81.0630 181° South 511 588 34,000  Level FlightAware ADS-B
Tue 09:59:32 AM 33.5620 -81.0650 181° South 504 580 34,000  Level FlightAware ADS-B
Tue 10:00:17 AM 33.4540 -81.0670 181° South 513 590 34,000  Level FlightAware ADS-B
Tue 10:00:57 AM 33.3580 -81.0700 181° South 514 592 34,000 71 Level FlightAware ADS-B
Tue 10:01:42 AM 33.2520 -81.0730 181° South 509 586 34,100 494 Climbing FlightAware ADS-B
Tue 10:02:22 AM 33.1580 -81.0760 182° South 513 590 34,700 1,271 Climbing FlightAware ADS-B
Tue 10:03:07 AM 33.0510 -81.0790 181° South 511 588 35,900 918 Climbing FlightAware ADS-B
Tue 10:03:47 AM 32.9580 -81.0820 182° South 514 592 36,000 75 Climbing FlightAware ADS-B
Tue 10:04:27 AM 32.8620 -81.0850 182° South 512 589 36,000  Level FlightAware ADS-B
Tue 10:05:12 AM 32.7540 -81.0880 181° South 512 589 36,000  Level FlightAware ADS-B
Tue 10:05:52 AM 32.6630 -81.0900 181° South 510 587 36,000  Level FlightAware ADS-B
Tue 10:06:27 AM 32.5870 -81.0930 182° South 509 586 36,000  Level FlightAware ADS-B
Tue 10:07:12 AM 32.4910 -81.0970 182° South 509 586 36,000  Level FlightAware ADS-B
Tue 10:07:52 AM 32.4110 -81.1000 182° South 509 586 36,000  Level FlightAware ADS-B
Tue 10:08:37 AM 32.3010 -81.1010 180° South 504 580 36,000  Level FlightAware ADS-B
Tue 10:09:17 AM 32.2220 -81.1030 181° South 504 580 36,000  Level FlightAware ADS-B
Tue 10:09:57 AM 32.1010 -81.1090 182° South 501 577 36,000  Level FlightAware ADS-B
Tue 10:10:47 AM 31.9850 -81.1120 181° South 500 575 36,000  Level FlightAware ADS-B
Tue 10:11:22 AM 31.9080 -81.1140 181° South 499 574 36,000  Level FlightAware ADS-B
Tue 10:12:02 AM 31.8120 -81.1170 182° South 497 572 36,000  Level FlightAware ADS-B
Tue 10:12:52 AM 31.7000 -81.1200 181° South 496 571 36,000  Level FlightAware ADS-B
Tue 10:13:47 AM 31.5720 -81.1200 180° South 497 572 36,000 -63 Level FlightAware ADS-B
Tue 10:14:27 AM 31.4740 -81.1190 180° South 496 571 35,900 -71 Descending FlightAware ADS-B
Tue 10:15:12 AM 31.3820 -81.1170 179° South 496 571 35,900  Level FlightAware ADS-B
Tue 10:15:52 AM 31.3040 -81.1150 179° South 496 571 35,900  Level FlightAware ADS-B
Tue 10:16:32 AM 31.2260 -81.1140 179° South 496 571 35,900  Level FlightAware ADS-B
Tue 10:17:12 AM 31.1480 -81.1120 179° South 496 571 35,900  Level FlightAware ADS-B
Tue 10:18:02 AM 31.0500 -81.1100 179° South 496 571 35,900  Level FlightAware ADS-B
Tue 10:18:42 AM 30.9720 -81.1090 179° South 496 571 35,900  Level FlightAware ADS-B
Tue 10:19:22 AM 30.8940 -81.1070 179° South 496 571 35,900  Level FlightAware ADS-B
Tue 10:20:02 AM 30.8160 -81.1060 179° South 496 571 35,900  Level FlightAware ADS-B
Tue 10:20:42 AM 30.7380 -81.1040 179° South 496 571 35,900  Level FlightAware ADS-B
Tue 10:21:32 AM 30.6410 -81.1020 179° South 496 571 35,900  Level FlightAware ADS-B
Tue 10:22:12 AM 30.5630 -81.1000 179° South 496 571 35,900  Level FlightAware ADS-B
Tue 10:22:52 AM 30.4850 -81.0990 179° South 496 571 35,900  Level FlightAware ADS-B
Tue 10:23:32 AM 30.4070 -81.0970 179° South 496 571 35,900  Level FlightAware ADS-B
Tue 10:24:12 AM 30.3290 -81.0960 179° South 496 571 35,900 -4,313 Level FlightAware ADS-B
Tue 10:25:08 AM 29.9911 -81.1181 179° South 494 568 29,000 -5,017 Descending Jacksonville Center
Tue 10:26:08 AM 29.8658 -81.1178 180° South 483 556 26,200 -2,850 Descending Jacksonville Center
Tue 10:27:08 AM 29.7364 -81.1178 180° South 471 542 23,300 -2,750 Descending Jacksonville Center
Tue 10:28:08 AM 29.6111 -81.1178 180° South 459 528 20,700 -2,500 Descending Jacksonville Center
Tue 10:29:08 AM 29.4922 -81.1175 180° South 449 517 18,300 -1,441 Descending Jacksonville Center
Tue 10:35:17 AM 28.8660 -81.1020 180° South 316 364 10,400 -1,230 Descending FlightAware ADS-B
Tue 10:36:27 AM 28.7720 -81.1270 193° South 279 321 9,300 -960 Descending FlightAware ADS-B
Tue 10:36:57 AM 28.7310 -81.1370 192° South 285 328 8,800 -545 Descending FlightAware ADS-B
Tue 10:37:22 AM 28.7040 -81.1450 195° South 282 325 8,800  Level FlightAware ADS-B
Tue 10:37:47 AM 28.6670 -81.1540 192° South 281 323 8,800  Level FlightAware ADS-B
Tue 10:38:02 AM 28.6460 -81.1590 192° South 281 323 8,800  Level FlightAware ADS-B
Tue 10:38:32 AM 28.6060 -81.1700 194° South 283 326 8,800  Level FlightAware ADS-B
Tue 10:39:02 AM 28.5680 -81.1800 193° South 283 326 8,800  Level FlightAware ADS-B
Tue 10:39:27 AM 28.5350 -81.1870 191° South 279 321 8,800  Level FlightAware ADS-B
Tue 10:39:42 AM 28.5160 -81.1880 183° South 245 282 8,800 -900 Level FlightAware ADS-B
Tue 10:40:07 AM 28.4880 -81.1880 180° South 239 275 8,200 -1,800 Descending FlightAware ADS-B
Tue 10:40:52 AM 28.4380 -81.1880 180° South 224 258 6,700 -1,900 Descending FlightAware ADS-B
Tue 10:41:07 AM 28.4240 -81.1880 180° South 230 265 6,300 -2,100 Descending FlightAware ADS-B
Tue 10:41:32 AM 28.3960 -81.1880 180° South 223 257 5,300 -2,314 Descending FlightAware ADS-B
Tue 10:42:17 AM 28.3490 -81.1880 180° South 227 261 3,600 -2,229 Descending FlightAware ADS-B
Tue 10:42:42 AM 28.3200 -81.1880 180° South 226 260 2,700 -1,950 Descending FlightAware ADS-B
Tue 10:42:57 AM 28.3050 -81.1940 199° South 236 272 2,300 -1,200 Descending FlightAware ADS-B
Tue 10:43:12 AM 28.2950 -81.2080 231° Southwest 236 272 2,100 -800 Descending FlightAware ADS-B
Tue 10:43:27 AM 28.2920 -81.2270 260° West 237 273 1,900 -750 Descending FlightAware ADS-B
Tue 10:43:52 AM 28.2900 -81.2570 266° West 231 266 1,600 -545 Descending FlightAware ADS-B
Tue 10:44:22 AM 28.3010 -81.2890 291° West 199 229 1,400 -200 Descending FlightAware ADS-B
Tue 10:44:52 AM 28.3160 -81.3120 307° West 180 207 1,400  Level FlightAware ADS-B
Tue 10:45:02 AM 28.3230 -81.3180 323° Northwest 166 191 1,400  Level FlightAware ADS-B
Tue 10:45:17 AM 28.3330 -81.3210 345° North 134 154 1,400 -200 Level FlightAware ADS-B
Tue 10:45:32 AM 28.3430 -81.3210 360° North 133 153 1,300 -667 Descending FlightAware ADS-B
Tue 10:46:02 AM 28.3620 -81.3220 357° North 133 153 900 -764 Descending FlightAware ADS-B
Tue 10:46:27 AM 28.3770 -81.3220 360° North 129 148 600 -655 Descending FlightAware ADS-B
Tue 10:46:57 AM 28.3950 -81.3230 357° North 131 151 300 -600 Descending FlightAware ADS-B
Tue 10:47:17 AM 28.4070 -81.3230 360° North 130 150 100 -600 Descending FlightAware ADS-B

Login

Don't have an account? Register now (free) for customized features, flight alerts, and more!